createdAt,value
2023-01-23T00:03:16.298Z,103099.56
2023-01-23T00:06:18.979Z,103104.09
2023-01-23T00:09:20.257Z,103111.66
2023-01-23T00:12:23.443Z,103115.06
2023-01-23T00:15:26.037Z,103106.94
2023-01-23T00:18:28.867Z,103112.81
2023-01-23T00:21:31.613Z,103111.38
2023-01-23T00:24:32.901Z,103104.69
2023-01-23T00:27:36.284Z,103112.38
2023-01-23T00:30:38.937Z,103114.22
2023-01-23T00:33:41.825Z,103107.41
2023-01-23T00:36:46.039Z,103104.69
2023-01-23T00:39:50.167Z,103116.66
2023-01-23T00:42:54.371Z,103111.81
2023-01-23T00:45:57.299Z,103121.09
2023-01-23T00:48:58.595Z,103122.66
2023-01-23T00:52:01.113Z,103116.38
2023-01-23T00:55:02.647Z,103130.63
2023-01-23T00:58:05.927Z,103125.22
2023-01-23T01:01:08.692Z,103125.50
2023-01-23T01:04:10.048Z,103120.81
2023-01-23T01:07:12.620Z,103127.38
2023-01-23T01:10:14.740Z,103133.22
2023-01-23T01:13:21.764Z,103126.81
2023-01-23T01:16:25.244Z,103130.63
2023-01-23T01:19:27.532Z,103128.78
2023-01-23T01:22:30.105Z,103136.19
2023-01-23T01:25:31.416Z,103142.22
2023-01-23T01:28:36.327Z,103146.78
2023-01-23T01:31:37.697Z,103159.03
2023-01-23T01:34:40.308Z,103149.03
2023-01-23T01:37:41.839Z,103151.34
2023-01-23T01:40:44.426Z,103154.00
2023-01-23T01:43:47.631Z,103148.59
2023-01-23T01:46:49.868Z,103155.31
2023-01-23T01:49:56.866Z,103147.19
2023-01-23T01:52:59.506Z,103159.72
2023-01-23T01:56:02.373Z,103163.69
2023-01-23T01:59:06.989Z,103165.41
2023-01-23T02:02:11.893Z,103160.13
2023-01-23T02:05:18.974Z,103160.44
2023-01-23T02:08:25.575Z,103156.47
2023-01-23T02:11:26.911Z,103157.88
2023-01-23T02:14:30.157Z,103170.84
2023-01-23T02:17:33.348Z,103170.84
2023-01-23T02:20:36.039Z,103174.97
2023-01-23T02:23:51.307Z,103172.28
2023-01-23T02:26:54.490Z,103166.00
2023-01-23T02:29:55.804Z,103173.88
2023-01-23T02:33:09.233Z,103166.28
2023-01-23T02:36:11.917Z,103170.00
2023-01-23T02:39:16.365Z,103172.00
2023-01-23T02:42:19.495Z,103170.56
2023-01-23T02:45:21.999Z,103176.44
2023-01-23T02:48:23.556Z,103180.25
2023-01-23T02:51:26.170Z,103182.56
2023-01-23T02:54:27.544Z,103188.81
2023-01-23T02:57:30.757Z,103188.13
2023-01-23T03:00:31.797Z,103187.81
2023-01-23T03:06:55.729Z,103188.53
2023-01-23T03:09:57.036Z,103180.41
2023-01-23T03:13:03.836Z,103190.13
2023-01-23T03:16:07.457Z,103202.94
2023-01-23T03:19:10.344Z,103206.94
2023-01-23T03:22:13.054Z,103217.63
2023-01-23T03:25:14.761Z,103214.63
2023-01-23T03:28:32.545Z,103218.78
2023-01-23T03:31:35.211Z,103220.91
2023-01-23T03:34:36.575Z,103219.78
2023-01-23T03:37:39.244Z,103223.59
2023-01-23T03:40:58.789Z,103229.03
2023-01-23T03:44:02.117Z,103228.88
2023-01-23T03:47:03.822Z,103224.75
2023-01-23T03:50:08.175Z,103238.00
2023-01-23T03:53:10.758Z,103228.03
2023-01-23T03:56:12.041Z,103235.19
2023-01-23T03:59:15.574Z,103251.44
2023-01-23T04:02:17.099Z,103248.88
2023-01-23T04:12:00.690Z,103254.00
2023-01-23T04:15:04.068Z,103251.41
2023-01-23T04:18:06.809Z,103253.28
2023-01-23T04:21:08.351Z,103249.44
2023-01-23T04:24:10.889Z,103250.69
2023-01-23T04:27:12.200Z,103258.72
2023-01-23T04:33:37.346Z,103255.41
2023-01-23T04:36:38.748Z,103259.13
2023-01-23T04:39:41.416Z,103261.84
2023-01-23T04:42:42.767Z,103270.25
2023-01-23T04:45:46.178Z,103266.41
2023-01-23T04:48:48.892Z,103264.69
2023-01-23T04:51:51.563Z,103260.97
2023-01-23T04:54:52.909Z,103253.84
2023-01-23T04:57:55.494Z,103259.84
2023-01-23T05:01:02.556Z,103246.44
2023-01-23T05:04:04.722Z,103256.41
2023-01-23T05:07:06.306Z,103252.41
2023-01-23T05:10:09.331Z,103258.00
2023-01-23T05:13:11.893Z,103260.53
2023-01-23T05:16:14.034Z,103261.69
2023-01-23T05:19:15.502Z,103266.25
2023-01-23T05:22:17.595Z,103266.56
2023-01-23T05:25:20.849Z,103269.25
2023-01-23T05:28:22.184Z,103273.53
2023-01-23T05:31:25.508Z,103272.81
2023-01-23T05:34:26.977Z,103267.81
2023-01-23T05:37:28.315Z,103271.94
2023-01-23T05:40:29.729Z,103268.97
2023-01-23T05:43:32.280Z,103261.00
2023-01-23T05:46:34.277Z,103270.13
2023-01-23T05:49:37.037Z,103285.09
2023-01-23T05:55:59.365Z,103280.81
2023-01-23T05:59:01.928Z,103272.69
2023-01-23T06:02:04.207Z,103280.97
2023-01-23T06:05:07.836Z,103283.22
2023-01-23T06:08:09.155Z,103290.09
2023-01-23T06:11:11.693Z,103288.34
2023-01-23T06:14:13.012Z,103300.19
2023-01-23T06:17:15.330Z,103302.75
2023-01-23T06:20:18.583Z,103302.78
2023-01-23T06:23:20.310Z,103305.19
2023-01-23T06:26:22.866Z,103316.16
2023-01-23T06:29:25.457Z,103314.75
2023-01-23T06:32:27.436Z,103312.03
2023-01-23T06:35:29.279Z,103315.03
2023-01-23T06:38:30.956Z,103330.59
2023-01-23T06:41:33.856Z,103327.16
2023-01-23T06:44:35.655Z,103334.56
2023-01-23T06:47:39.016Z,103328.16
2023-01-23T06:50:42.307Z,103329.41
2023-01-23T06:53:43.601Z,103334.81
2023-01-23T06:56:46.158Z,103330.72
2023-01-23T06:59:47.468Z,103338.53
2023-01-23T07:02:49.677Z,103338.66
2023-01-23T07:05:51.526Z,103347.25
2023-01-23T07:08:54.147Z,103349.69
2023-01-23T07:11:56.879Z,103352.09
2023-01-23T07:14:58.276Z,103348.13
2023-01-23T07:18:01.758Z,103345.13
2023-01-23T07:21:05.055Z,103359.50
2023-01-23T07:24:06.748Z,103359.50
2023-01-23T07:27:08.144Z,103361.91
2023-01-23T07:30:11.785Z,103371.91
2023-01-23T07:33:14.175Z,103380.59
2023-01-23T07:36:17.723Z,103379.72
2023-01-23T07:39:19.116Z,103380.59
2023-01-23T07:42:21.780Z,103374.19
2023-01-23T07:45:23.119Z,103382.03
2023-01-23T07:48:26.385Z,103382.16
2023-01-23T07:51:28.958Z,103381.31
2023-01-23T07:54:30.462Z,103371.47
2023-01-23T07:57:33.228Z,103374.88
2023-01-23T08:00:34.712Z,103370.47
2023-01-23T08:03:38.061Z,103364.78
2023-01-23T08:06:39.421Z,103370.53
2023-01-23T08:09:40.905Z,103376.91
2023-01-23T08:12:42.225Z,103373.50
2023-01-23T08:15:43.585Z,103364.22
2023-01-23T08:18:45.669Z,103363.63
2023-01-23T08:21:47.001Z,103363.78
2023-01-23T08:28:10.474Z,103372.06
2023-01-23T08:31:13.272Z,103374.19
2023-01-23T08:34:16.681Z,103385.34
2023-01-23T08:37:17.995Z,103384.78
2023-01-23T08:40:20.254Z,103401.03
2023-01-23T08:43:23.071Z,103413.31
2023-01-23T08:46:24.363Z,103410.19
2023-01-23T08:49:27.751Z,103417.56
2023-01-23T08:52:29.037Z,103421.88
2023-01-23T08:55:31.911Z,103433.59
2023-01-23T08:58:33.812Z,103440.44
2023-01-23T09:01:35.233Z,103445.72
2023-01-23T09:04:37.822Z,103447.44
2023-01-23T09:07:40.138Z,103448.44
2023-01-23T09:10:42.780Z,103448.25
2023-01-23T09:13:46.752Z,103452.72
2023-01-23T09:16:48.058Z,103453.84
2023-01-23T09:19:51.591Z,103459.84
2023-01-23T09:22:52.911Z,103456.09
2023-01-23T09:25:55.514Z,103464.13
2023-01-23T09:28:56.804Z,103472.72
2023-01-23T09:31:59.424Z,103464.59
2023-01-23T09:35:01.401Z,103470.31
2023-01-23T09:38:06.315Z,103469.75
2023-01-23T09:41:11.436Z,103471.19
2023-01-23T09:44:20.069Z,103473.03
2023-01-23T09:47:27.328Z,103468.63
2023-01-23T09:50:34.043Z,103470.06
2023-01-23T09:53:39.047Z,103489.75
2023-01-23T09:56:46.037Z,103489.59
2023-01-23T10:00:00.203Z,103484.75
2023-01-23T10:03:11.587Z,103480.88
2023-01-23T10:06:22.332Z,103480.16
2023-01-23T10:09:41.211Z,103484.91
2023-01-23T10:12:56.186Z,103483.78
2023-01-23T10:16:10.159Z,103492.03
2023-01-23T10:19:25.690Z,103492.75
2023-01-23T10:22:41.050Z,103488.34
2023-01-23T10:25:44.258Z,103485.75
2023-01-23T10:28:47.627Z,103487.47
2023-01-23T10:31:53.581Z,103491.63
2023-01-23T10:35:04.201Z,103499.22
2023-01-23T10:38:18.018Z,103487.63
2023-01-23T10:41:23.058Z,103498.78
2023-01-23T10:44:26.040Z,103491.91
2023-01-23T10:47:34.528Z,103492.06
2023-01-23T10:50:39.996Z,103497.06
2023-01-23T10:53:42.003Z,103495.50
2023-01-23T10:56:52.369Z,103498.91
2023-01-23T10:59:56.818Z,103505.31
2023-01-23T11:03:24.277Z,103496.75
2023-01-23T11:06:27.480Z,103499.06
2023-01-23T11:09:30.625Z,103494.63
2023-01-23T11:12:34.161Z,103496.47
2023-01-23T11:15:40.115Z,103491.63
2023-01-23T11:18:45.851Z,103482.63
2023-01-23T11:21:55.222Z,103488.78
2023-01-23T11:24:58.708Z,103498.19
2023-01-23T11:28:02.229Z,103507.03
2023-01-23T11:31:14.484Z,103499.47
2023-01-23T11:34:19.833Z,103491.50
2023-01-23T11:37:27.842Z,103490.91
2023-01-23T11:40:30.255Z,103486.06
2023-01-23T11:43:31.651Z,103486.94
2023-01-23T11:47:06.314Z,103479.34
2023-01-23T11:50:28.636Z,103486.19
2023-01-23T11:53:42.875Z,103478.09
2023-01-23T11:57:01.869Z,103474.06
2023-01-23T12:00:20.569Z,103465.63
2023-01-23T12:03:51.401Z,103461.38
2023-01-23T12:07:18.211Z,103454.66
2023-01-23T12:10:27.160Z,103458.94
2023-01-23T12:14:00.443Z,103445.63
2023-01-23T12:17:23.349Z,103443.66
2023-01-23T12:20:38.736Z,103441.81
2023-01-23T12:23:55.777Z,103446.78
2023-01-23T12:27:02.121Z,103452.06
2023-01-23T12:30:28.448Z,103449.66
2023-01-23T12:33:47.435Z,103445.22
2023-01-23T12:37:16.821Z,103443.94
2023-01-23T12:40:36.661Z,103445.38
2023-01-23T12:43:47.815Z,103450.50
2023-01-23T12:46:54.853Z,103446.19
2023-01-23T12:50:00.536Z,103437.50
2023-01-23T12:53:06.776Z,103449.50
2023-01-23T12:56:13.527Z,103449.94
2023-01-23T12:59:23.915Z,103440.94
2023-01-23T13:02:39.786Z,103450.38
2023-01-23T13:05:53.168Z,103445.22
2023-01-23T13:09:16.752Z,103443.94
2023-01-23T13:12:22.489Z,103442.63
2023-01-23T13:15:39.872Z,103454.50
2023-01-23T13:19:08.938Z,103454.06
2023-01-23T13:22:29.939Z,103456.66
2023-01-23T13:25:38.652Z,103462.66
2023-01-23T13:28:46.240Z,103451.22
2023-01-23T13:31:52.225Z,103450.22
2023-01-23T13:34:54.807Z,103453.94
2023-01-23T13:38:00.059Z,103451.94
2023-01-23T13:41:30.226Z,103437.22
2023-01-23T13:44:42.092Z,103452.94
2023-01-23T14:29:38.451Z,103454.66
2023-01-23T14:36:02.759Z,103457.06
2023-01-23T14:39:05.297Z,103461.34
2023-01-23T14:42:11.653Z,103467.50
2023-01-23T14:45:15.768Z,103466.38
2023-01-23T14:48:19.965Z,103467.22
2023-01-23T14:51:24.072Z,103475.03
2023-01-23T14:54:32.576Z,103479.47
2023-01-23T14:57:36.186Z,103484.19
2023-01-23T15:00:46.281Z,103487.22
2023-01-23T15:03:57.417Z,103487.59
2023-01-23T15:07:01.160Z,103493.88
2023-01-23T15:10:03.043Z,103499.91
2023-01-23T15:13:10.532Z,103490.03
2023-01-23T15:16:18.792Z,103493.19
2023-01-23T15:19:23.434Z,103484.03
2023-01-23T15:22:26.396Z,103494.31
2023-01-23T15:28:52.000Z,103494.16
2023-01-23T15:31:56.403Z,103503.59
2023-01-23T15:34:58.391Z,103507.16
2023-01-23T15:38:04.083Z,103507.16
2023-01-23T15:41:09.512Z,103515.53
2023-01-23T15:44:16.512Z,103514.84
2023-01-23T15:47:19.093Z,103525.38
2023-01-23T15:50:20.500Z,103526.25
2023-01-23T15:53:23.362Z,103521.06
2023-01-23T15:56:29.212Z,103529.19
2023-01-23T15:59:34.571Z,103528.34
2023-01-23T16:05:57.885Z,103531.91
2023-01-23T16:09:05.773Z,103538.47
2023-01-23T16:12:16.371Z,103528.63
2023-01-23T16:15:20.783Z,103514.34
2023-01-23T16:18:24.913Z,103526.47
2023-01-23T16:21:31.281Z,103519.34
2023-01-23T16:24:38.524Z,103529.34
2023-01-23T16:27:40.460Z,103529.06
2023-01-23T16:30:44.796Z,103536.75
2023-01-23T16:33:46.351Z,103530.34
2023-01-23T16:36:49.379Z,103532.63
2023-01-23T16:39:50.691Z,103533.19
2023-01-23T16:42:54.699Z,103538.59
2023-01-23T16:45:57.032Z,103529.91
2023-01-23T16:48:59.799Z,103541.88
2023-01-23T16:52:01.357Z,103540.31
2023-01-23T16:55:06.950Z,103542.75
2023-01-23T16:58:16.487Z,103539.19
2023-01-23T17:01:23.152Z,103542.06
2023-01-23T17:04:24.543Z,103547.91
2023-01-23T17:07:26.813Z,103538.78
2023-01-23T17:10:41.198Z,103558.00
2023-01-23T17:13:47.512Z,103550.63
2023-01-23T17:16:53.024Z,103551.59
2023-01-23T17:19:54.733Z,103546.97
2023-01-23T17:22:59.925Z,103550.53
2023-01-23T17:26:01.968Z,103545.53
2023-01-23T17:29:03.429Z,103557.94
2023-01-23T17:32:07.130Z,103551.09
2023-01-23T17:35:20.186Z,103556.81
2023-01-23T17:38:24.701Z,103555.69
2023-01-23T17:41:26.437Z,103557.94
2023-01-23T17:44:27.775Z,103561.78
2023-01-23T17:47:32.288Z,103562.03
2023-01-23T17:50:33.658Z,103564.50
2023-01-23T17:53:35.755Z,103565.28
2023-01-23T17:56:37.330Z,103563.50
2023-01-23T17:59:40.162Z,103563.44
2023-01-23T18:02:45.188Z,103568.22
2023-01-23T18:05:46.768Z,103563.44
2023-01-23T18:08:48.368Z,103558.44
2023-01-23T18:11:52.263Z,103568.88
2023-01-23T18:15:03.177Z,103562.25
2023-01-23T18:18:19.609Z,103568.00
2023-01-23T18:21:24.163Z,103567.88
2023-01-23T18:24:29.450Z,103571.53
2023-01-23T18:27:35.887Z,103561.28
2023-01-23T18:30:47.720Z,103558.31
2023-01-23T18:34:04.292Z,103567.78
2023-01-23T18:37:20.482Z,103560.69
2023-01-23T18:40:26.669Z,103553.53
2023-01-23T18:43:38.945Z,103563.34
2023-01-23T18:46:42.128Z,103561.50
2023-01-23T18:49:44.595Z,103573.91
2023-01-23T18:52:53.733Z,103569.81
2023-01-23T18:56:11.112Z,103560.81
2023-01-23T18:59:23.258Z,103567.09
2023-01-23T19:02:31.167Z,103565.06
2023-01-23T19:05:34.076Z,103561.66
2023-01-23T19:08:35.689Z,103561.88
2023-01-23T19:12:00.359Z,103561.88
2023-01-23T19:15:10.746Z,103561.59
2023-01-23T19:18:40.107Z,103573.00
2023-01-23T19:21:45.645Z,103570.63
2023-01-23T19:24:47.541Z,103574.44
2023-01-23T19:27:52.027Z,103575.16
2023-01-23T19:30:55.160Z,103577.13
2023-01-23T19:33:59.052Z,103579.25
2023-01-23T19:37:01.109Z,103582.63
2023-01-23T19:40:03.921Z,103587.06
2023-01-23T19:43:14.345Z,103576.75
2023-01-23T19:46:17.386Z,103582.56
2023-01-23T19:49:19.961Z,103584.69
2023-01-23T19:52:22.200Z,103587.78
2023-01-23T19:55:26.746Z,103581.75
2023-01-23T20:01:53.237Z,103588.25
2023-01-23T20:04:56.883Z,103587.13
2023-01-23T20:08:01.508Z,103584.94
2023-01-23T20:11:02.920Z,103585.69
2023-01-23T20:14:04.304Z,103580.13
2023-01-23T20:17:06.855Z,103588.38
2023-01-23T20:20:10.537Z,103591.38
2023-01-23T20:23:15.451Z,103597.78
2023-01-23T20:26:18.507Z,103606.69
2023-01-23T20:29:20.791Z,103610.69
2023-01-23T20:32:22.241Z,103607.34
2023-01-23T20:35:31.466Z,103604.78
2023-01-23T20:38:34.177Z,103617.47
2023-01-23T20:41:36.161Z,103612.31
2023-01-23T20:44:39.026Z,103615.25
2023-01-23T20:47:40.595Z,103622.06
2023-01-23T20:50:43.190Z,103616.72
2023-01-23T20:53:45.555Z,103617.25
2023-01-23T20:56:48.097Z,103618.31
2023-01-23T20:59:49.551Z,103619.44
2023-01-23T21:02:52.603Z,103622.41
2023-01-23T21:05:55.454Z,103630.13
2023-01-23T21:08:58.569Z,103630.13
2023-01-23T21:12:01.337Z,103625.94
2023-01-23T21:15:04.386Z,103636.78
2023-01-23T21:18:05.635Z,103631.63
2023-01-23T21:21:11.078Z,103622.38
2023-01-23T21:24:13.401Z,103623.47
2023-01-23T21:27:15.983Z,103628.44
2023-01-23T21:30:18.053Z,103626.63
2023-01-23T21:33:20.699Z,103640.13
2023-01-23T21:36:25.449Z,103638.59
2023-01-23T21:39:27.627Z,103623.72
2023-01-23T21:42:30.262Z,103621.44
2023-01-23T21:45:34.239Z,103616.38
2023-01-23T21:48:37.371Z,103621.00
2023-01-23T21:51:38.763Z,103622.34
2023-01-23T21:54:43.200Z,103619.69
2023-01-23T21:57:44.786Z,103621.88
2023-01-23T22:01:05.901Z,103619.34
2023-01-23T22:04:10.954Z,103616.00
2023-01-23T22:07:12.266Z,103622.00
2023-01-23T22:10:16.511Z,103622.00
2023-01-23T22:13:17.819Z,103619.94
2023-01-23T22:16:22.903Z,103625.44
2023-01-23T22:19:31.004Z,103624.44
2023-01-23T22:22:32.337Z,103637.41
2023-01-23T22:25:35.601Z,103640.38
2023-01-23T22:28:38.115Z,103639.75
2023-01-23T22:31:40.873Z,103642.59
2023-01-23T22:34:42.322Z,103630.66
2023-01-23T22:37:45.070Z,103632.75
2023-01-23T22:40:57.219Z,103643.59
2023-01-23T22:44:00.020Z,103636.47
2023-01-23T22:47:02.203Z,103635.59
2023-01-23T22:50:05.226Z,103641.63
2023-01-23T22:53:06.643Z,103638.81
2023-01-23T22:56:10.818Z,103635.50
2023-01-23T22:59:12.254Z,103644.63
2023-01-23T23:02:15.561Z,103644.50
2023-01-23T23:05:17.055Z,103639.63
2023-01-23T23:08:19.671Z,103642.50
2023-01-23T23:11:24.375Z,103632.22
2023-01-23T23:14:25.704Z,103630.38
2023-01-23T23:17:30.438Z,103617.41
2023-01-23T23:20:32.184Z,103611.47
2023-01-23T23:23:35.338Z,103608.47
2023-01-23T23:26:37.333Z,103601.59
2023-01-23T23:29:40.118Z,103601.03
2023-01-23T23:32:41.625Z,103608.66
2023-01-23T23:35:45.042Z,103607.06
2023-01-23T23:38:46.406Z,103607.72
2023-01-23T23:41:49.898Z,103611.00
2023-01-23T23:44:51.623Z,103604.16
2023-01-23T23:47:55.612Z,103608.34
2023-01-23T23:50:59.804Z,103611.59
2023-01-23T23:54:02.481Z,103614.16
2023-01-23T23:57:05.791Z,103609.34
